sensor_id;sensor_type;location;lat;lon;timestamp;P1;durP1;ratioP1;P2;durP2;ratioP2
16354;SDS011;8287;51.644;8.494;2022-11-13T00:00:33;18.90;;;18.00;;
16354;SDS011;8287;51.644;8.494;2022-11-13T00:03:00;22.83;;;21.73;;
16354;SDS011;8287;51.644;8.494;2022-11-13T00:05:28;27.05;;;25.75;;
16354;SDS011;8287;51.644;8.494;2022-11-13T00:07:55;31.15;;;29.40;;
16354;SDS011;8287;51.644;8.494;2022-11-13T00:10:21;32.33;;;30.83;;
16354;SDS011;8287;51.644;8.494;2022-11-13T00:12:48;33.30;;;31.67;;
16354;SDS011;8287;51.644;8.494;2022-11-13T00:15:14;26.65;;;25.35;;
16354;SDS011;8287;51.644;8.494;2022-11-13T00:17:41;36.40;;;34.63;;
16354;SDS011;8287;51.644;8.494;2022-11-13T00:20:08;38.40;;;36.42;;
16354;SDS011;8287;51.644;8.494;2022-11-13T00:22:36;36.08;;;34.28;;
16354;SDS011;8287;51.644;8.494;2022-11-13T00:25:03;36.03;;;34.17;;
16354;SDS011;8287;51.644;8.494;2022-11-13T00:27:30;38.67;;;36.85;;
16354;SDS011;8287;51.644;8.494;2022-11-13T00:29:57;37.30;;;35.50;;
16354;SDS011;8287;51.644;8.494;2022-11-13T00:32:23;38.70;;;36.75;;
16354;SDS011;8287;51.644;8.494;2022-11-13T00:34:50;27.27;;;25.95;;
16354;SDS011;8287;51.644;8.494;2022-11-13T00:37:17;22.27;;;21.27;;
16354;SDS011;8287;51.644;8.494;2022-11-13T00:39:45;19.67;;;18.45;;
16354;SDS011;8287;51.644;8.494;2022-11-13T00:42:12;18.77;;;17.83;;
16354;SDS011;8287;51.644;8.494;2022-11-13T00:44:38;19.23;;;18.33;;
16354;SDS011;8287;51.644;8.494;2022-11-13T00:47:05;19.15;;;18.25;;
16354;SDS011;8287;51.644;8.494;2022-11-13T00:49:31;20.55;;;19.58;;
16354;SDS011;8287;51.644;8.494;2022-11-13T00:51:58;19.88;;;18.88;;
16354;SDS011;8287;51.644;8.494;2022-11-13T00:54:26;21.15;;;20.25;;
16354;SDS011;8287;51.644;8.494;2022-11-13T00:56:55;20.58;;;19.67;;
16354;SDS011;8287;51.644;8.494;2022-11-13T00:59:21;18.20;;;17.40;;
16354;SDS011;8287;51.644;8.494;2022-11-13T01:01:48;16.02;;;15.32;;
16354;SDS011;8287;51.644;8.494;2022-11-13T01:04:14;15.90;;;15.20;;
16354;SDS011;8287;51.644;8.494;2022-11-13T01:06:41;15.40;;;14.70;;
16354;SDS011;8287;51.644;8.494;2022-11-13T01:09:09;18.27;;;17.48;;
16354;SDS011;8287;51.644;8.494;2022-11-13T01:11:36;18.33;;;17.42;;
16354;SDS011;8287;51.644;8.494;2022-11-13T01:14:04;16.40;;;15.70;;
16354;SDS011;8287;51.644;8.494;2022-11-13T01:16:30;17.90;;;17.10;;
16354;SDS011;8287;51.644;8.494;2022-11-13T01:18:57;18.55;;;17.70;;
16354;SDS011;8287;51.644;8.494;2022-11-13T01:21:24;18.02;;;16.98;;
16354;SDS011;8287;51.644;8.494;2022-11-13T01:23:52;16.30;;;15.40;;
16354;SDS011;8287;51.644;8.494;2022-11-13T01:26:20;16.23;;;15.52;;
16354;SDS011;8287;51.644;8.494;2022-11-13T01:28:49;17.08;;;16.27;;
16354;SDS011;8287;51.644;8.494;2022-11-13T01:31:18;16.33;;;15.52;;
16354;SDS011;8287;51.644;8.494;2022-11-13T01:33:46;15.63;;;14.93;;
16354;SDS011;8287;51.644;8.494;2022-11-13T01:36:14;17.08;;;16.38;;
16354;SDS011;8287;51.644;8.494;2022-11-13T01:38:42;16.13;;;15.45;;
16354;SDS011;8287;51.644;8.494;2022-11-13T01:41:10;16.65;;;15.95;;
16354;SDS011;8287;51.644;8.494;2022-11-13T01:43:41;15.15;;;14.55;;
16354;SDS011;8287;51.644;8.494;2022-11-13T01:46:11;15.73;;;14.95;;
16354;SDS011;8287;51.644;8.494;2022-11-13T01:48:44;15.43;;;14.73;;
16354;SDS011;8287;51.644;8.494;2022-11-13T01:51:16;13.90;;;13.30;;
16354;SDS011;8287;51.644;8.494;2022-11-13T01:53:47;14.27;;;13.68;;
16354;SDS011;8287;51.644;8.494;2022-11-13T01:56:15;15.68;;;15.07;;
16354;SDS011;8287;51.644;8.494;2022-11-13T01:58:43;14.82;;;14.07;;
16354;SDS011;8287;51.644;8.494;2022-11-13T02:01:13;17.45;;;16.65;;
16354;SDS011;8287;51.644;8.494;2022-11-13T02:03:40;15.55;;;14.63;;
16354;SDS011;8287;51.644;8.494;2022-11-13T02:06:08;15.63;;;14.90;;
16354;SDS011;8287;51.644;8.494;2022-11-13T02:08:34;14.02;;;13.40;;
16354;SDS011;8287;51.644;8.494;2022-11-13T02:11:01;15.32;;;14.57;;
16354;SDS011;8287;51.644;8.494;2022-11-13T02:13:28;14.45;;;13.85;;
16354;SDS011;8287;51.644;8.494;2022-11-13T02:15:54;16.90;;;16.20;;
16354;SDS011;8287;51.644;8.494;2022-11-13T02:18:22;14.73;;;14.13;;
16354;SDS011;8287;51.644;8.494;2022-11-13T02:20:53;15.23;;;14.52;;
16354;SDS011;8287;51.644;8.494;2022-11-13T02:23:30;16.23;;;15.40;;
16354;SDS011;8287;51.644;8.494;2022-11-13T02:26:06;15.95;;;15.27;;
16354;SDS011;8287;51.644;8.494;2022-11-13T02:28:34;18.23;;;17.40;;
16354;SDS011;8287;51.644;8.494;2022-11-13T02:31:05;16.67;;;15.98;;
16354;SDS011;8287;51.644;8.494;2022-11-13T02:33:32;14.77;;;14.18;;
16354;SDS011;8287;51.644;8.494;2022-11-13T02:35:59;15.07;;;14.30;;
16354;SDS011;8287;51.644;8.494;2022-11-13T02:38:26;15.95;;;15.30;;
16354;SDS011;8287;51.644;8.494;2022-11-13T02:40:53;15.88;;;15.07;;
16354;SDS011;8287;51.644;8.494;2022-11-13T02:43:21;16.23;;;15.52;;
16354;SDS011;8287;51.644;8.494;2022-11-13T02:45:48;14.32;;;13.70;;
16354;SDS011;8287;51.644;8.494;2022-11-13T02:48:14;14.82;;;14.20;;
16354;SDS011;8287;51.644;8.494;2022-11-13T02:50:41;16.90;;;15.95;;
16354;SDS011;8287;51.644;8.494;2022-11-13T02:53:08;16.70;;;16.00;;
16354;SDS011;8287;51.644;8.494;2022-11-13T02:55:35;14.73;;;14.02;;
16354;SDS011;8287;51.644;8.494;2022-11-13T02:58:02;15.10;;;14.50;;
16354;SDS011;8287;51.644;8.494;2022-11-13T03:00:30;14.80;;;14.18;;
16354;SDS011;8287;51.644;8.494;2022-11-13T03:02:56;15.07;;;14.38;;
16354;SDS011;8287;51.644;8.494;2022-11-13T03:05:23;18.65;;;17.92;;
16354;SDS011;8287;51.644;8.494;2022-11-13T03:07:49;18.77;;;17.88;;
16354;SDS011;8287;51.644;8.494;2022-11-13T03:10:16;17.02;;;16.02;;
16354;SDS011;8287;51.644;8.494;2022-11-13T03:12:43;15.13;;;14.48;;
16354;SDS011;8287;51.644;8.494;2022-11-13T03:15:10;16.50;;;15.70;;
16354;SDS011;8287;51.644;8.494;2022-11-13T03:17:38;19.75;;;18.95;;
16354;SDS011;8287;51.644;8.494;2022-11-13T03:20:04;16.17;;;15.43;;
16354;SDS011;8287;51.644;8.494;2022-11-13T03:22:31;14.38;;;13.68;;
16354;SDS011;8287;51.644;8.494;2022-11-13T03:24:58;15.80;;;14.80;;
16354;SDS011;8287;51.644;8.494;2022-11-13T03:27:25;14.98;;;14.13;;
16354;SDS011;8287;51.644;8.494;2022-11-13T03:29:51;17.02;;;16.17;;
16354;SDS011;8287;51.644;8.494;2022-11-13T03:32:18;21.25;;;20.05;;
16354;SDS011;8287;51.644;8.494;2022-11-13T03:34:46;21.55;;;20.65;;
16354;SDS011;8287;51.644;8.494;2022-11-13T03:37:12;21.30;;;20.30;;
16354;SDS011;8287;51.644;8.494;2022-11-13T03:39:39;24.48;;;23.33;;
16354;SDS011;8287;51.644;8.494;2022-11-13T03:42:06;18.33;;;17.48;;
16354;SDS011;8287;51.644;8.494;2022-11-13T03:44:32;15.32;;;14.63;;
16354;SDS011;8287;51.644;8.494;2022-11-13T03:46:59;19.15;;;18.15;;
16354;SDS011;8287;51.644;8.494;2022-11-13T03:49:25;23.30;;;21.63;;
16354;SDS011;8287;51.644;8.494;2022-11-13T03:51:53;23.90;;;22.80;;
16354;SDS011;8287;51.644;8.494;2022-11-13T03:54:20;21.13;;;20.20;;
16354;SDS011;8287;51.644;8.494;2022-11-13T03:56:46;20.75;;;19.85;;
16354;SDS011;8287;51.644;8.494;2022-11-13T03:59:13;21.17;;;19.95;;
16354;SDS011;8287;51.644;8.494;2022-11-13T04:01:40;19.42;;;18.52;;
16354;SDS011;8287;51.644;8.494;2022-11-13T04:04:06;19.40;;;18.50;;
16354;SDS011;8287;51.644;8.494;2022-11-13T04:06:33;20.10;;;19.20;;
16354;SDS011;8287;51.644;8.494;2022-11-13T04:09:01;20.67;;;19.65;;
16354;SDS011;8287;51.644;8.494;2022-11-13T04:11:27;20.73;;;19.63;;
16354;SDS011;8287;51.644;8.494;2022-11-13T04:13:54;23.45;;;21.73;;
16354;SDS011;8287;51.644;8.494;2022-11-13T04:16:21;23.42;;;21.92;;
16354;SDS011;8287;51.644;8.494;2022-11-13T04:18:47;22.83;;;21.45;;
16354;SDS011;8287;51.644;8.494;2022-11-13T04:21:14;24.50;;;22.92;;
16354;SDS011;8287;51.644;8.494;2022-11-13T04:23:40;24.27;;;22.65;;
16354;SDS011;8287;51.644;8.494;2022-11-13T04:26:08;23.67;;;22.27;;
16354;SDS011;8287;51.644;8.494;2022-11-13T04:28:35;24.30;;;22.95;;
16354;SDS011;8287;51.644;8.494;2022-11-13T04:31:01;24.05;;;22.65;;
16354;SDS011;8287;51.644;8.494;2022-11-13T04:33:28;23.42;;;22.15;;
16354;SDS011;8287;51.644;8.494;2022-11-13T04:35:55;22.80;;;21.40;;
16354;SDS011;8287;51.644;8.494;2022-11-13T04:38:21;22.90;;;21.63;;
16354;SDS011;8287;51.644;8.494;2022-11-13T04:40:48;22.45;;;21.30;;
16354;SDS011;8287;51.644;8.494;2022-11-13T04:43:37;22.67;;;21.27;;
16354;SDS011;8287;51.644;8.494;2022-11-13T04:46:02;23.75;;;22.50;;
16354;SDS011;8287;51.644;8.494;2022-11-13T04:48:29;23.45;;;22.05;;
16354;SDS011;8287;51.644;8.494;2022-11-13T04:50:55;28.33;;;26.92;;
16354;SDS011;8287;51.644;8.494;2022-11-13T04:53:22;23.35;;;22.15;;
16354;SDS011;8287;51.644;8.494;2022-11-13T04:55:50;23.10;;;22.10;;
16354;SDS011;8287;51.644;8.494;2022-11-13T04:58:17;22.45;;;21.02;;
16354;SDS011;8287;51.644;8.494;2022-11-13T05:00:45;22.10;;;21.00;;
16354;SDS011;8287;51.644;8.494;2022-11-13T05:03:12;23.00;;;22.00;;
16354;SDS011;8287;51.644;8.494;2022-11-13T05:05:38;22.50;;;21.40;;
16354;SDS011;8287;51.644;8.494;2022-11-13T05:08:05;21.73;;;20.73;;
16354;SDS011;8287;51.644;8.494;2022-11-13T05:10:31;21.55;;;20.55;;
16354;SDS011;8287;51.644;8.494;2022-11-13T05:12:58;20.48;;;19.48;;
16354;SDS011;8287;51.644;8.494;2022-11-13T05:15:24;20.92;;;19.92;;
16354;SDS011;8287;51.644;8.494;2022-11-13T05:17:52;19.25;;;18.23;;
16354;SDS011;8287;51.644;8.494;2022-11-13T05:20:19;19.63;;;18.63;;
16354;SDS011;8287;51.644;8.494;2022-11-13T05:22:46;20.45;;;19.35;;
16354;SDS011;8287;51.644;8.494;2022-11-13T05:25:13;19.73;;;18.63;;
16354;SDS011;8287;51.644;8.494;2022-11-13T05:27:39;19.10;;;18.00;;
16354;SDS011;8287;51.644;8.494;2022-11-13T05:30:06;19.15;;;18.17;;
16354;SDS011;8287;51.644;8.494;2022-11-13T05:32:34;20.77;;;19.23;;
16354;SDS011;8287;51.644;8.494;2022-11-13T05:35:02;22.92;;;21.52;;
16354;SDS011;8287;51.644;8.494;2022-11-13T05:37:28;19.48;;;18.38;;
16354;SDS011;8287;51.644;8.494;2022-11-13T05:39:55;17.80;;;16.90;;
16354;SDS011;8287;51.644;8.494;2022-11-13T05:42:21;18.67;;;17.67;;
16354;SDS011;8287;51.644;8.494;2022-11-13T05:44:48;18.52;;;17.35;;
16354;SDS011;8287;51.644;8.494;2022-11-13T05:47:15;21.48;;;20.45;;
16354;SDS011;8287;51.644;8.494;2022-11-13T05:49:41;25.58;;;24.35;;
16354;SDS011;8287;51.644;8.494;2022-11-13T05:52:09;26.55;;;25.10;;
16354;SDS011;8287;51.644;8.494;2022-11-13T05:54:36;26.60;;;25.30;;
16354;SDS011;8287;51.644;8.494;2022-11-13T05:57:02;26.33;;;25.23;;
16354;SDS011;8287;51.644;8.494;2022-11-13T05:59:29;25.45;;;24.25;;
16354;SDS011;8287;51.644;8.494;2022-11-13T06:01:55;25.08;;;23.83;;
16354;SDS011;8287;51.644;8.494;2022-11-13T06:04:22;23.52;;;22.52;;
16354;SDS011;8287;51.644;8.494;2022-11-13T06:06:48;24.42;;;23.33;;
16354;SDS011;8287;51.644;8.494;2022-11-13T06:09:17;21.13;;;20.17;;
16354;SDS011;8287;51.644;8.494;2022-11-13T06:11:44;22.55;;;21.48;;
16354;SDS011;8287;51.644;8.494;2022-11-13T06:14:10;34.13;;;32.63;;
16354;SDS011;8287;51.644;8.494;2022-11-13T06:16:37;37.22;;;35.30;;
16354;SDS011;8287;51.644;8.494;2022-11-13T06:19:05;31.50;;;30.15;;
16354;SDS011;8287;51.644;8.494;2022-11-13T06:21:33;22.92;;;21.23;;
16354;SDS011;8287;51.644;8.494;2022-11-13T06:24:02;19.90;;;19.00;;
16354;SDS011;8287;51.644;8.494;2022-11-13T06:26:30;19.92;;;18.95;;
16354;SDS011;8287;51.644;8.494;2022-11-13T06:28:59;22.50;;;21.50;;
16354;SDS011;8287;51.644;8.494;2022-11-13T06:31:28;21.75;;;20.77;;
16354;SDS011;8287;51.644;8.494;2022-11-13T06:33:57;20.35;;;19.45;;
16354;SDS011;8287;51.644;8.494;2022-11-13T06:36:25;20.88;;;19.88;;
16354;SDS011;8287;51.644;8.494;2022-11-13T06:38:53;19.70;;;18.77;;
16354;SDS011;8287;51.644;8.494;2022-11-13T06:41:20;17.98;;;16.90;;
16354;SDS011;8287;51.644;8.494;2022-11-13T06:43:49;17.80;;;17.00;;
16354;SDS011;8287;51.644;8.494;2022-11-13T06:46:17;16.83;;;16.13;;
16354;SDS011;8287;51.644;8.494;2022-11-13T06:48:45;20.60;;;19.50;;
16354;SDS011;8287;51.644;8.494;2022-11-13T06:51:12;23.13;;;21.92;;
16354;SDS011;8287;51.644;8.494;2022-11-13T06:53:41;20.75;;;19.75;;
16354;SDS011;8287;51.644;8.494;2022-11-13T06:56:08;22.38;;;21.17;;
16354;SDS011;8287;51.644;8.494;2022-11-13T06:58:35;23.65;;;22.25;;
16354;SDS011;8287;51.644;8.494;2022-11-13T07:01:07;20.13;;;19.13;;
16354;SDS011;8287;51.644;8.494;2022-11-13T07:03:35;18.52;;;17.52;;
16354;SDS011;8287;51.644;8.494;2022-11-13T07:06:02;17.77;;;16.88;;
16354;SDS011;8287;51.644;8.494;2022-11-13T07:08:30;17.80;;;16.92;;
16354;SDS011;8287;51.644;8.494;2022-11-13T07:10:57;18.40;;;17.13;;
16354;SDS011;8287;51.644;8.494;2022-11-13T07:13:24;19.85;;;18.67;;
16354;SDS011;8287;51.644;8.494;2022-11-13T07:15:52;20.05;;;19.05;;
16354;SDS011;8287;51.644;8.494;2022-11-13T07:18:20;18.30;;;17.40;;
16354;SDS011;8287;51.644;8.494;2022-11-13T07:20:47;20.05;;;19.05;;
16354;SDS011;8287;51.644;8.494;2022-11-13T07:23:14;21.08;;;20.08;;
16354;SDS011;8287;51.644;8.494;2022-11-13T07:25:40;21.77;;;20.77;;
16354;SDS011;8287;51.644;8.494;2022-11-13T07:28:08;21.92;;;20.83;;
16354;SDS011;8287;51.644;8.494;2022-11-13T07:30:35;22.50;;;21.35;;
16354;SDS011;8287;51.644;8.494;2022-11-13T07:33:01;23.85;;;22.50;;
16354;SDS011;8287;51.644;8.494;2022-11-13T07:35:30;23.77;;;22.60;;
16354;SDS011;8287;51.644;8.494;2022-11-13T07:37:57;24.50;;;22.80;;
16354;SDS011;8287;51.644;8.494;2022-11-13T07:40:24;23.17;;;21.88;;
16354;SDS011;8287;51.644;8.494;2022-11-13T07:42:55;23.70;;;22.13;;
16354;SDS011;8287;51.644;8.494;2022-11-13T07:45:23;25.42;;;23.63;;
16354;SDS011;8287;51.644;8.494;2022-11-13T07:47:50;26.42;;;24.55;;
16354;SDS011;8287;51.644;8.494;2022-11-13T07:50:17;27.67;;;25.52;;
16354;SDS011;8287;51.644;8.494;2022-11-13T07:52:44;27.35;;;25.48;;
16354;SDS011;8287;51.644;8.494;2022-11-13T07:55:11;41.67;;;39.03;;
16354;SDS011;8287;51.644;8.494;2022-11-13T07:57:38;36.28;;;33.63;;
16354;SDS011;8287;51.644;8.494;2022-11-13T08:00:05;37.53;;;35.03;;
16354;SDS011;8287;51.644;8.494;2022-11-13T08:02:32;32.45;;;30.30;;
16354;SDS011;8287;51.644;8.494;2022-11-13T08:04:59;26.38;;;24.58;;
16354;SDS011;8287;51.644;8.494;2022-11-13T08:07:25;35.05;;;32.83;;
16354;SDS011;8287;51.644;8.494;2022-11-13T08:09:53;25.98;;;24.50;;
16354;SDS011;8287;51.644;8.494;2022-11-13T08:12:20;27.80;;;25.98;;
16354;SDS011;8287;51.644;8.494;2022-11-13T08:14:47;26.38;;;24.83;;
16354;SDS011;8287;51.644;8.494;2022-11-13T08:17:13;24.77;;;23.30;;
16354;SDS011;8287;51.644;8.494;2022-11-13T08:19:40;26.17;;;24.02;;
16354;SDS011;8287;51.644;8.494;2022-11-13T08:22:07;26.08;;;24.58;;
16354;SDS011;8287;51.644;8.494;2022-11-13T08:24:35;26.13;;;24.83;;
16354;SDS011;8287;51.644;8.494;2022-11-13T08:27:03;26.60;;;25.27;;
16354;SDS011;8287;51.644;8.494;2022-11-13T08:29:31;25.40;;;24.10;;
16354;SDS011;8287;51.644;8.494;2022-11-13T08:31:58;30.15;;;28.45;;
16354;SDS011;8287;51.644;8.494;2022-11-13T08:34:24;27.10;;;25.67;;
16354;SDS011;8287;51.644;8.494;2022-11-13T08:36:51;29.50;;;28.00;;
16354;SDS011;8287;51.644;8.494;2022-11-13T08:39:18;25.55;;;24.10;;
16354;SDS011;8287;51.644;8.494;2022-11-13T08:41:44;25.30;;;24.10;;
16354;SDS011;8287;51.644;8.494;2022-11-13T08:44:12;22.48;;;21.27;;
16354;SDS011;8287;51.644;8.494;2022-11-13T08:46:39;23.60;;;22.13;;
16354;SDS011;8287;51.644;8.494;2022-11-13T08:49:06;20.25;;;19.35;;
16354;SDS011;8287;51.644;8.494;2022-11-13T08:51:33;22.13;;;21.02;;
16354;SDS011;8287;51.644;8.494;2022-11-13T08:53:59;26.80;;;25.00;;
16354;SDS011;8287;51.644;8.494;2022-11-13T08:56:26;23.10;;;21.88;;
16354;SDS011;8287;51.644;8.494;2022-11-13T08:58:52;23.88;;;22.67;;
16354;SDS011;8287;51.644;8.494;2022-11-13T09:01:20;24.10;;;22.92;;
16354;SDS011;8287;51.644;8.494;2022-11-13T09:03:47;20.17;;;19.08;;
16354;SDS011;8287;51.644;8.494;2022-11-13T09:06:14;19.60;;;18.60;;
16354;SDS011;8287;51.644;8.494;2022-11-13T09:08:41;21.25;;;20.05;;
16354;SDS011;8287;51.644;8.494;2022-11-13T09:11:07;23.60;;;21.95;;
16354;SDS011;8287;51.644;8.494;2022-11-13T09:13:34;23.38;;;22.25;;
16354;SDS011;8287;51.644;8.494;2022-11-13T09:16:01;23.05;;;21.88;;
16354;SDS011;8287;51.644;8.494;2022-11-13T09:18:30;21.55;;;20.45;;
16354;SDS011;8287;51.644;8.494;2022-11-13T09:20:59;17.58;;;16.70;;
16354;SDS011;8287;51.644;8.494;2022-11-13T09:23:26;16.80;;;16.00;;
16354;SDS011;8287;51.644;8.494;2022-11-13T09:25:54;17.58;;;16.77;;
16354;SDS011;8287;51.644;8.494;2022-11-13T09:28:21;17.10;;;16.20;;
16354;SDS011;8287;51.644;8.494;2022-11-13T09:30:48;17.13;;;16.33;;
16354;SDS011;8287;51.644;8.494;2022-11-13T09:33:15;17.08;;;16.08;;
16354;SDS011;8287;51.644;8.494;2022-11-13T09:35:43;18.70;;;17.75;;
16354;SDS011;8287;51.644;8.494;2022-11-13T09:38:12;17.63;;;16.63;;
16354;SDS011;8287;51.644;8.494;2022-11-13T09:40:41;18.25;;;17.35;;
16354;SDS011;8287;51.644;8.494;2022-11-13T09:43:19;18.63;;;17.52;;
16354;SDS011;8287;51.644;8.494;2022-11-13T09:45:53;19.02;;;17.80;;
16354;SDS011;8287;51.644;8.494;2022-11-13T09:48:27;20.48;;;19.38;;
16354;SDS011;8287;51.644;8.494;2022-11-13T09:51:00;18.80;;;17.90;;
16354;SDS011;8287;51.644;8.494;2022-11-13T09:53:32;19.00;;;18.00;;
16354;SDS011;8287;51.644;8.494;2022-11-13T09:56:02;20.20;;;19.10;;
16354;SDS011;8287;51.644;8.494;2022-11-13T09:58:38;19.02;;;17.92;;
16354;SDS011;8287;51.644;8.494;2022-11-13T10:01:14;17.95;;;17.05;;
16354;SDS011;8287;51.644;8.494;2022-11-13T10:03:49;21.35;;;20.33;;
16354;SDS011;8287;51.644;8.494;2022-11-13T10:06:24;19.70;;;18.70;;
16354;SDS011;8287;51.644;8.494;2022-11-13T10:08:56;20.23;;;19.17;;
16354;SDS011;8287;51.644;8.494;2022-11-13T10:11:35;20.00;;;19.00;;
16354;SDS011;8287;51.644;8.494;2022-11-13T10:14:07;21.55;;;20.15;;
16354;SDS011;8287;51.644;8.494;2022-11-13T10:16:39;19.13;;;18.02;;
16354;SDS011;8287;51.644;8.494;2022-11-13T10:19:11;19.38;;;18.48;;
16354;SDS011;8287;51.644;8.494;2022-11-13T10:21:47;17.58;;;16.67;;
16354;SDS011;8287;51.644;8.494;2022-11-13T10:24:20;20.60;;;19.70;;
16354;SDS011;8287;51.644;8.494;2022-11-13T10:26:50;19.73;;;18.77;;
16354;SDS011;8287;51.644;8.494;2022-11-13T10:29:20;18.05;;;17.17;;
16354;SDS011;8287;51.644;8.494;2022-11-13T10:31:47;23.88;;;22.75;;
16354;SDS011;8287;51.644;8.494;2022-11-13T10:34:16;25.13;;;23.60;;
16354;SDS011;8287;51.644;8.494;2022-11-13T10:36:51;25.38;;;23.75;;
16354;SDS011;8287;51.644;8.494;2022-11-13T10:39:25;25.35;;;23.63;;
16354;SDS011;8287;51.644;8.494;2022-11-13T10:41:52;22.95;;;21.75;;
16354;SDS011;8287;51.644;8.494;2022-11-13T10:44:20;19.17;;;18.17;;
16354;SDS011;8287;51.644;8.494;2022-11-13T10:46:48;20.67;;;19.48;;
16354;SDS011;8287;51.644;8.494;2022-11-13T10:49:17;21.80;;;20.38;;
16354;SDS011;8287;51.644;8.494;2022-11-13T10:51:52;17.63;;;16.83;;
16354;SDS011;8287;51.644;8.494;2022-11-13T10:54:22;20.17;;;19.17;;
16354;SDS011;8287;51.644;8.494;2022-11-13T10:56:55;23.00;;;21.98;;
16354;SDS011;8287;51.644;8.494;2022-11-13T10:59:25;17.55;;;16.70;;
16354;SDS011;8287;51.644;8.494;2022-11-13T11:01:52;21.15;;;19.98;;
16354;SDS011;8287;51.644;8.494;2022-11-13T11:04:20;27.67;;;26.20;;
16354;SDS011;8287;51.644;8.494;2022-11-13T11:06:49;25.20;;;24.10;;
16354;SDS011;8287;51.644;8.494;2022-11-13T11:09:20;25.70;;;24.40;;
16354;SDS011;8287;51.644;8.494;2022-11-13T11:11:56;24.25;;;23.15;;
16354;SDS011;8287;51.644;8.494;2022-11-13T11:14:56;23.58;;;22.38;;
16354;SDS011;8287;51.644;8.494;2022-11-13T11:17:31;24.42;;;23.33;;
16354;SDS011;8287;51.644;8.494;2022-11-13T11:20:04;21.60;;;20.67;;
16354;SDS011;8287;51.644;8.494;2022-11-13T11:22:33;20.90;;;20.00;;
16354;SDS011;8287;51.644;8.494;2022-11-13T11:25:05;22.50;;;21.50;;
16354;SDS011;8287;51.644;8.494;2022-11-13T11:27:39;19.98;;;18.88;;
16354;SDS011;8287;51.644;8.494;2022-11-13T11:30:12;24.98;;;23.83;;
16354;SDS011;8287;51.644;8.494;2022-11-13T11:32:45;18.73;;;17.63;;
16354;SDS011;8287;51.644;8.494;2022-11-13T11:35:16;20.60;;;19.48;;
16354;SDS011;8287;51.644;8.494;2022-11-13T11:37:47;19.98;;;19.08;;
16354;SDS011;8287;51.644;8.494;2022-11-13T11:40:24;24.77;;;23.75;;
16354;SDS011;8287;51.644;8.494;2022-11-13T11:42:55;24.65;;;23.55;;
16354;SDS011;8287;51.644;8.494;2022-11-13T11:45:28;23.95;;;22.90;;
16354;SDS011;8287;51.644;8.494;2022-11-13T11:47:58;21.08;;;20.05;;
16354;SDS011;8287;51.644;8.494;2022-11-13T11:50:31;23.50;;;22.40;;
16354;SDS011;8287;51.644;8.494;2022-11-13T11:53:03;22.63;;;21.63;;
16354;SDS011;8287;51.644;8.494;2022-11-13T11:55:54;21.55;;;20.55;;
16354;SDS011;8287;51.644;8.494;2022-11-13T11:58:35;21.08;;;20.20;;
16354;SDS011;8287;51.644;8.494;2022-11-13T12:01:16;22.80;;;21.85;;
16354;SDS011;8287;51.644;8.494;2022-11-13T12:06:43;26.25;;;24.92;;
16354;SDS011;8287;51.644;8.494;2022-11-13T12:09:23;27.42;;;25.90;;
16354;SDS011;8287;51.644;8.494;2022-11-13T12:11:58;28.80;;;27.50;;
16354;SDS011;8287;51.644;8.494;2022-11-13T12:14:34;26.17;;;25.08;;
16354;SDS011;8287;51.644;8.494;2022-11-13T12:17:14;27.70;;;26.55;;
16354;SDS011;8287;51.644;8.494;2022-11-13T12:19:53;27.42;;;26.33;;
16354;SDS011;8287;51.644;8.494;2022-11-13T12:22:31;28.38;;;27.17;;
16354;SDS011;8287;51.644;8.494;2022-11-13T12:25:13;25.10;;;24.08;;
16354;SDS011;8287;51.644;8.494;2022-11-13T12:27:48;25.92;;;24.85;;
16354;SDS011;8287;51.644;8.494;2022-11-13T12:30:20;31.25;;;29.88;;
16354;SDS011;8287;51.644;8.494;2022-11-13T12:32:57;27.27;;;26.15;;
16354;SDS011;8287;51.644;8.494;2022-11-13T12:35:31;23.80;;;22.80;;
16354;SDS011;8287;51.644;8.494;2022-11-13T12:37:59;23.67;;;22.70;;
16354;SDS011;8287;51.644;8.494;2022-11-13T12:40:34;23.67;;;22.58;;
16354;SDS011;8287;51.644;8.494;2022-11-13T12:43:17;23.40;;;22.40;;
16354;SDS011;8287;51.644;8.494;2022-11-13T12:45:55;22.42;;;21.52;;
16354;SDS011;8287;51.644;8.494;2022-11-13T12:48:26;22.23;;;21.30;;
16354;SDS011;8287;51.644;8.494;2022-11-13T12:50:59;22.50;;;21.38;;
16354;SDS011;8287;51.644;8.494;2022-11-13T12:53:28;19.90;;;19.00;;
16354;SDS011;8287;51.644;8.494;2022-11-13T12:55:57;19.42;;;18.52;;
16354;SDS011;8287;51.644;8.494;2022-11-13T12:58:26;21.30;;;20.40;;
16354;SDS011;8287;51.644;8.494;2022-11-13T13:00:55;22.05;;;20.88;;
16354;SDS011;8287;51.644;8.494;2022-11-13T13:03:41;22.58;;;21.58;;
16354;SDS011;8287;51.644;8.494;2022-11-13T13:06:20;19.60;;;18.73;;
16354;SDS011;8287;51.644;8.494;2022-11-13T13:09:17;19.77;;;18.77;;
16354;SDS011;8287;51.644;8.494;2022-11-13T13:11:56;21.55;;;20.65;;
16354;SDS011;8287;51.644;8.494;2022-11-13T13:14:34;18.80;;;17.98;;
16354;SDS011;8287;51.644;8.494;2022-11-13T13:17:21;18.40;;;17.60;;
16354;SDS011;8287;51.644;8.494;2022-11-13T13:19:56;20.02;;;19.13;;
16354;SDS011;8287;51.644;8.494;2022-11-13T13:22:24;20.77;;;19.88;;
16354;SDS011;8287;51.644;8.494;2022-11-13T13:25:00;20.83;;;19.92;;
16354;SDS011;8287;51.644;8.494;2022-11-13T13:27:28;18.42;;;17.63;;
16354;SDS011;8287;51.644;8.494;2022-11-13T13:29:59;20.75;;;19.73;;
16354;SDS011;8287;51.644;8.494;2022-11-13T13:32:48;18.45;;;17.55;;
16354;SDS011;8287;51.644;8.494;2022-11-13T13:35:20;18.42;;;17.63;;
16354;SDS011;8287;51.644;8.494;2022-11-13T13:37:51;19.02;;;18.13;;
16354;SDS011;8287;51.644;8.494;2022-11-13T13:40:30;17.90;;;17.00;;
16354;SDS011;8287;51.644;8.494;2022-11-13T13:43:11;18.15;;;17.35;;
16354;SDS011;8287;51.644;8.494;2022-11-13T13:45:52;23.88;;;22.58;;
16354;SDS011;8287;51.644;8.494;2022-11-13T13:48:25;22.25;;;21.25;;
16354;SDS011;8287;51.644;8.494;2022-11-13T13:50:54;18.52;;;17.63;;
16354;SDS011;8287;51.644;8.494;2022-11-13T13:53:28;21.45;;;20.35;;
16354;SDS011;8287;51.644;8.494;2022-11-13T13:55:57;22.65;;;21.65;;
16354;SDS011;8287;51.644;8.494;2022-11-13T13:58:25;20.85;;;19.85;;
16354;SDS011;8287;51.644;8.494;2022-11-13T14:00:57;18.52;;;17.63;;
16354;SDS011;8287;51.644;8.494;2022-11-13T14:03:25;20.35;;;19.25;;
16354;SDS011;8287;51.644;8.494;2022-11-13T14:05:53;19.55;;;18.63;;
16354;SDS011;8287;51.644;8.494;2022-11-13T14:08:21;17.23;;;16.52;;
16354;SDS011;8287;51.644;8.494;2022-11-13T14:10:49;22.80;;;21.85;;
16354;SDS011;8287;51.644;8.494;2022-11-13T14:13:21;17.88;;;17.15;;
16354;SDS011;8287;51.644;8.494;2022-11-13T14:15:58;24.20;;;22.85;;
16354;SDS011;8287;51.644;8.494;2022-11-13T14:18:27;18.52;;;17.73;;
16354;SDS011;8287;51.644;8.494;2022-11-13T14:20:54;17.30;;;16.60;;
16354;SDS011;8287;51.644;8.494;2022-11-13T14:23:23;17.92;;;17.23;;
16354;SDS011;8287;51.644;8.494;2022-11-13T14:25:52;21.42;;;20.30;;
16354;SDS011;8287;51.644;8.494;2022-11-13T14:28:20;23.35;;;22.25;;
16354;SDS011;8287;51.644;8.494;2022-11-13T14:30:53;27.80;;;26.48;;
16354;SDS011;8287;51.644;8.494;2022-11-13T14:33:25;27.27;;;25.92;;
16354;SDS011;8287;51.644;8.494;2022-11-13T14:35:55;35.63;;;33.60;;
16354;SDS011;8287;51.644;8.494;2022-11-13T14:38:24;30.65;;;29.25;;
16354;SDS011;8287;51.644;8.494;2022-11-13T14:40:53;32.83;;;31.42;;
16354;SDS011;8287;51.644;8.494;2022-11-13T14:43:20;30.77;;;29.10;;
16354;SDS011;8287;51.644;8.494;2022-11-13T14:45:54;33.67;;;32.15;;
16354;SDS011;8287;51.644;8.494;2022-11-13T14:48:25;34.97;;;33.25;;